createdAt,value
2017-12-20T00:00:05.450Z,50.80
2017-12-20T00:01:05.453Z,65.70
2017-12-20T00:02:05.437Z,71.90
2017-12-20T00:03:05.432Z,58.00
2017-12-20T00:04:05.426Z,52.70
2017-12-20T00:05:05.421Z,57.20
2017-12-20T00:06:05.414Z,60.60
2017-12-20T00:07:05.407Z,55.30
2017-12-20T00:08:05.402Z,57.40
2017-12-20T00:09:05.397Z,51.70
2017-12-20T00:10:05.391Z,54.10
2017-12-20T00:11:05.385Z,57.50
2017-12-20T00:12:05.379Z,53.40
2017-12-20T00:13:05.373Z,60.00
2017-12-20T00:14:05.368Z,59.60
2017-12-20T00:15:05.360Z,66.70
2017-12-20T00:16:05.355Z,51.50
2017-12-20T00:17:05.350Z,49.60
2017-12-20T00:18:05.343Z,66.70
2017-12-20T00:19:05.336Z,64.50
2017-12-20T00:20:05.333Z,70.90
2017-12-20T00:21:05.325Z,48.50
2017-12-20T00:22:05.319Z,44.40
2017-12-20T00:23:05.313Z,49.90
2017-12-20T00:24:05.309Z,52.60
2017-12-20T00:25:05.303Z,49.50
2017-12-20T00:26:05.298Z,54.90
2017-12-20T00:27:05.291Z,56.10
2017-12-20T00:28:05.285Z,52.90
2017-12-20T00:29:05.278Z,51.80
2017-12-20T00:30:05.272Z,50.20
2017-12-20T00:31:05.267Z,56.00
2017-12-20T00:32:05.261Z,54.20
2017-12-20T00:33:05.256Z,70.90
2017-12-20T00:34:05.250Z,62.00
2017-12-20T00:35:05.253Z,50.20
2017-12-20T00:36:05.238Z,60.60
2017-12-20T00:37:05.232Z,53.10
2017-12-20T00:38:05.226Z,60.90
2017-12-20T00:39:05.221Z,58.20
2017-12-20T00:40:05.217Z,66.20
2017-12-20T00:41:05.212Z,60.10
2017-12-20T00:42:05.210Z,61.80
2017-12-20T00:43:05.198Z,61.30
2017-12-20T00:44:05.192Z,53.60
2017-12-20T00:45:05.188Z,55.10
2017-12-20T00:46:05.180Z,50.50
2017-12-20T00:47:05.175Z,49.00
2017-12-20T00:48:05.169Z,53.60
2017-12-20T00:49:05.164Z,54.60
2017-12-20T00:50:05.156Z,57.50
2017-12-20T00:51:05.152Z,58.30
2017-12-20T00:52:05.146Z,62.70
2017-12-20T00:53:05.139Z,56.30
2017-12-20T00:54:05.133Z,57.60
2017-12-20T00:55:05.129Z,72.90
2017-12-20T00:56:05.123Z,48.40
2017-12-20T00:57:05.118Z,74.20
2017-12-20T00:58:05.112Z,60.10
2017-12-20T00:59:05.105Z,57.10
2017-12-20T01:00:05.100Z,63.70
2017-12-20T01:01:05.095Z,58.20
2017-12-20T01:02:05.087Z,65.10
2017-12-20T01:03:05.083Z,69.30
2017-12-20T01:04:05.078Z,65.80
2017-12-20T01:05:05.070Z,71.20
2017-12-20T01:06:05.066Z,68.80
2017-12-20T01:07:05.058Z,58.80
2017-12-20T01:08:05.054Z,77.50
2017-12-20T01:09:05.050Z,68.90
2017-12-20T01:10:05.042Z,62.20
2017-12-20T01:11:05.036Z,52.70
2017-12-20T01:12:05.030Z,71.20
2017-12-20T01:13:05.026Z,55.80
2017-12-20T01:14:05.019Z,55.90
2017-12-20T01:15:05.013Z,65.80
2017-12-20T01:16:05.009Z,63.70
2017-12-20T01:17:05.002Z,64.80
2017-12-20T01:18:04.996Z,74.50
2017-12-20T01:19:04.991Z,68.60
2017-12-20T01:20:04.985Z,49.60
2017-12-20T01:21:04.980Z,67.30
2017-12-20T01:22:04.976Z,57.20
2017-12-20T01:23:04.967Z,70.10
2017-12-20T01:24:04.961Z,62.30
2017-12-20T01:25:04.956Z,66.00
2017-12-20T01:26:04.948Z,68.30
2017-12-20T01:27:04.943Z,61.90
2017-12-20T01:28:04.937Z,71.60
2017-12-20T01:29:04.932Z,57.50
2017-12-20T01:30:04.928Z,53.80
2017-12-20T01:31:04.919Z,63.40
2017-12-20T01:32:04.915Z,64.10
2017-12-20T01:33:04.909Z,54.10
2017-12-20T01:34:04.902Z,60.20
2017-12-20T01:35:04.897Z,51.10
2017-12-20T01:36:04.892Z,57.00
2017-12-20T01:37:04.893Z,59.00
2017-12-20T01:38:04.880Z,51.70
2017-12-20T01:39:04.873Z,53.30
2017-12-20T01:40:04.869Z,61.40
2017-12-20T01:41:04.863Z,44.90
2017-12-20T01:42:04.856Z,57.60
2017-12-20T01:43:04.850Z,65.40
2017-12-20T01:44:04.845Z,70.70
2017-12-20T01:45:04.839Z,53.20
2017-12-20T01:46:04.832Z,62.10
2017-12-20T01:47:04.826Z,69.90
2017-12-20T01:48:04.822Z,54.50
2017-12-20T01:49:04.814Z,58.80
2017-12-20T01:50:04.808Z,72.90
2017-12-20T01:51:04.803Z,56.40
2017-12-20T01:52:04.796Z,62.00
2017-12-20T01:53:04.792Z,58.60
2017-12-20T01:54:04.785Z,58.90
2017-12-20T01:55:04.780Z,51.60
2017-12-20T01:56:04.773Z,52.30
2017-12-20T01:57:04.767Z,50.50
2017-12-20T01:58:04.762Z,55.00
2017-12-20T01:59:04.756Z,56.90
2017-12-20T02:00:04.750Z,59.40
2017-12-20T02:01:04.744Z,57.90
2017-12-20T02:02:04.739Z,70.80
2017-12-20T02:03:04.733Z,57.70
2017-12-20T02:04:04.727Z,69.60
2017-12-20T02:05:04.722Z,69.70
2017-12-20T02:06:04.713Z,56.60
2017-12-20T02:07:04.709Z,68.50
2017-12-20T02:08:04.711Z,68.80
2017-12-20T02:09:04.697Z,57.00
2017-12-20T02:10:04.690Z,64.80
2017-12-20T02:11:04.686Z,62.80
2017-12-20T02:12:04.683Z,59.60
2017-12-20T02:13:04.675Z,72.70
2017-12-20T02:14:04.667Z,67.30
2017-12-20T02:15:04.663Z,65.90
2017-12-20T02:16:04.657Z,61.40
2017-12-20T02:17:04.652Z,79.70
2017-12-20T02:18:04.646Z,69.60
2017-12-20T02:19:04.639Z,78.30
2017-12-20T02:20:04.634Z,65.20
2017-12-20T02:21:04.629Z,68.80
2017-12-20T02:22:04.622Z,67.60
2017-12-20T02:23:04.617Z,62.90
2017-12-20T02:24:04.611Z,61.90
2017-12-20T02:25:04.605Z,65.70
2017-12-20T02:26:04.600Z,67.10
2017-12-20T02:27:04.594Z,59.20
2017-12-20T02:28:04.587Z,65.80
2017-12-20T02:29:04.582Z,64.90
2017-12-20T02:30:04.574Z,61.80
2017-12-20T02:31:04.571Z,66.60
2017-12-20T02:32:04.566Z,63.30
2017-12-20T02:33:04.568Z,50.90
2017-12-20T02:34:04.553Z,64.50
2017-12-20T02:35:04.552Z,67.10
2017-12-20T02:36:04.544Z,64.10
2017-12-20T02:37:04.537Z,66.10
2017-12-20T02:38:04.530Z,64.10
2017-12-20T02:39:04.527Z,69.00
2017-12-20T02:40:04.519Z,61.90
2017-12-20T02:41:04.513Z,68.10
2017-12-20T02:42:04.505Z,77.70
2017-12-20T02:43:04.502Z,66.80
2017-12-20T02:44:04.496Z,64.60
2017-12-20T02:45:04.490Z,83.80
2017-12-20T02:46:04.485Z,68.70
2017-12-20T02:47:04.480Z,60.10
2017-12-20T02:48:04.474Z,59.10
2017-12-20T02:49:04.468Z,53.40
2017-12-20T02:50:04.462Z,70.20
2017-12-20T02:51:04.457Z,65.70
2017-12-20T02:52:04.451Z,63.80
2017-12-20T02:53:04.445Z,56.90
2017-12-20T02:54:04.439Z,63.30
2017-12-20T02:55:04.433Z,58.80
2017-12-20T02:56:04.428Z,61.90
2017-12-20T02:57:04.427Z,63.50
2017-12-20T02:58:04.416Z,58.50
2017-12-20T02:59:04.411Z,59.30
2017-12-20T03:00:04.404Z,58.60
2017-12-20T03:01:04.400Z,75.00
2017-12-20T03:02:04.394Z,55.10
2017-12-20T03:03:04.389Z,71.30
2017-12-20T03:04:04.383Z,63.80
2017-12-20T03:05:04.379Z,66.30
2017-12-20T03:06:04.372Z,79.10
2017-12-20T03:07:04.366Z,66.40
2017-12-20T03:08:04.361Z,58.20
2017-12-20T03:09:04.356Z,69.70
2017-12-20T03:10:04.350Z,62.90
2017-12-20T03:11:04.344Z,68.80
2017-12-20T03:12:04.339Z,62.30
2017-12-20T03:13:04.335Z,70.30
2017-12-20T03:14:04.327Z,58.00
2017-12-20T03:15:04.321Z,74.20
2017-12-20T03:16:04.317Z,62.50
2017-12-20T03:17:04.312Z,52.90
2017-12-20T03:18:04.305Z,63.30
2017-12-20T03:19:04.300Z,58.10
2017-12-20T03:20:04.295Z,55.30
2017-12-20T03:21:04.289Z,56.00
2017-12-20T03:22:04.288Z,68.80
2017-12-20T03:23:04.278Z,65.60
2017-12-20T03:24:04.274Z,61.70
2017-12-20T03:25:04.269Z,70.80
2017-12-20T03:26:04.263Z,60.70
2017-12-20T03:27:04.258Z,55.30
2017-12-20T03:28:04.251Z,67.10
2017-12-20T03:29:04.247Z,60.00
2017-12-20T03:30:04.243Z,56.40
2017-12-20T03:31:04.236Z,77.60
2017-12-20T03:32:04.231Z,57.90
2017-12-20T03:33:04.226Z,52.80
2017-12-20T03:34:04.220Z,56.30
2017-12-20T03:35:04.215Z,65.30
2017-12-20T03:36:04.208Z,72.90
2017-12-20T03:37:04.203Z,58.10
2017-12-20T03:38:04.197Z,55.90
2017-12-20T03:39:04.190Z,49.30
2017-12-20T03:40:04.186Z,79.60
2017-12-20T03:41:04.183Z,66.10
2017-12-20T03:42:04.176Z,68.00
2017-12-20T03:43:04.170Z,66.30
2017-12-20T03:44:04.167Z,65.30
2017-12-20T03:45:04.160Z,70.00
2017-12-20T03:46:04.154Z,60.80
2017-12-20T03:47:04.149Z,52.40
2017-12-20T03:48:04.143Z,54.60
2017-12-20T03:49:04.137Z,66.10
2017-12-20T03:50:04.132Z,59.10
2017-12-20T03:51:04.126Z,63.50
2017-12-20T03:52:04.122Z,60.40
2017-12-20T03:53:04.117Z,61.20
2017-12-20T03:54:04.112Z,58.50
2017-12-20T03:55:04.103Z,64.90
2017-12-20T03:56:04.101Z,62.80
2017-12-20T03:57:04.094Z,62.20
2017-12-20T03:58:04.089Z,60.30
2017-12-20T03:59:04.083Z,64.30
2017-12-20T04:00:04.082Z,68.80
2017-12-20T04:01:04.073Z,57.10
2017-12-20T04:02:04.068Z,59.40
2017-12-20T04:03:04.062Z,60.20
2017-12-20T04:04:04.056Z,59.20
2017-12-20T04:05:04.051Z,56.30
2017-12-20T04:06:04.045Z,48.80
2017-12-20T04:07:04.040Z,61.60
2017-12-20T04:08:04.035Z,63.40
2017-12-20T04:09:04.030Z,52.00
2017-12-20T04:10:04.024Z,67.80
2017-12-20T04:11:04.018Z,68.50
2017-12-20T04:12:04.013Z,53.30
2017-12-20T04:13:04.009Z,57.70
2017-12-20T04:14:04.002Z,63.50
2017-12-20T04:15:03.996Z,76.40
2017-12-20T04:16:03.992Z,49.70
2017-12-20T04:17:03.985Z,49.10
2017-12-20T04:18:03.979Z,56.30
2017-12-20T04:19:03.975Z,50.40
2017-12-20T04:20:03.972Z,55.00
2017-12-20T04:21:03.965Z,59.10
2017-12-20T04:22:03.959Z,53.70
2017-12-20T04:23:03.954Z,53.50
2017-12-20T04:24:03.949Z,48.90
2017-12-20T04:25:03.944Z,46.00
2017-12-20T04:26:03.937Z,53.90
2017-12-20T04:27:03.932Z,55.80
2017-12-20T04:28:03.926Z,55.60
2017-12-20T04:29:03.923Z,57.30
2017-12-20T04:30:03.915Z,50.90
2017-12-20T04:31:03.911Z,42.80
2017-12-20T04:32:03.905Z,38.00
2017-12-20T04:33:03.902Z,55.40
2017-12-20T04:34:03.896Z,45.20
2017-12-20T04:35:03.891Z,51.60
2017-12-20T04:36:03.885Z,43.40
2017-12-20T04:37:03.880Z,49.40
2017-12-20T04:38:03.875Z,51.20
2017-12-20T04:39:03.869Z,54.10
2017-12-20T04:40:03.865Z,44.20
2017-12-20T04:41:03.858Z,48.20
2017-12-20T04:42:03.853Z,47.50
2017-12-20T04:43:03.852Z,42.60
2017-12-20T04:44:03.845Z,44.50
2017-12-20T04:45:03.838Z,44.70
2017-12-20T04:46:03.832Z,36.90
2017-12-20T04:47:03.827Z,45.30
2017-12-20T04:48:03.822Z,40.10
2017-12-20T04:49:03.818Z,37.20
2017-12-20T04:50:03.811Z,37.50
2017-12-20T04:51:03.807Z,42.60
2017-12-20T04:52:03.803Z,39.10
2017-12-20T04:53:03.795Z,50.50
2017-12-20T04:54:03.790Z,41.10
2017-12-20T04:55:03.785Z,47.90
2017-12-20T04:56:03.781Z,32.30
2017-12-20T04:57:03.782Z,43.20
2017-12-20T04:58:03.769Z,40.00
2017-12-20T04:59:03.765Z,33.60
2017-12-20T05:00:03.760Z,37.20
2017-12-20T05:01:03.754Z,39.60
2017-12-20T05:02:03.748Z,36.00
2017-12-20T05:03:03.743Z,45.40
2017-12-20T05:04:03.739Z,28.60
2017-12-20T05:05:03.734Z,33.20
2017-12-20T05:06:03.728Z,36.90
2017-12-20T05:07:03.724Z,35.20
2017-12-20T05:08:03.718Z,32.20
2017-12-20T05:09:03.716Z,29.30
2017-12-20T05:10:03.711Z,31.60
2017-12-20T05:11:03.703Z,40.10
2017-12-20T05:12:03.697Z,35.40
2017-12-20T05:13:03.692Z,35.60
2017-12-20T05:14:03.686Z,38.50
2017-12-20T05:15:03.680Z,37.20
2017-12-20T05:16:03.680Z,28.70
2017-12-20T05:17:03.671Z,39.60
2017-12-20T05:18:03.665Z,32.50
2017-12-20T05:19:03.661Z,34.40
2017-12-20T05:20:03.655Z,29.00
2017-12-20T05:21:03.651Z,35.40
2017-12-20T05:22:03.646Z,34.90
2017-12-20T05:23:03.639Z,30.80
2017-12-20T05:24:03.638Z,32.30
2017-12-20T05:25:03.629Z,35.50
2017-12-20T05:26:03.623Z,33.90
2017-12-20T05:27:03.617Z,36.80
2017-12-20T05:28:03.613Z,37.20
2017-12-20T05:29:03.607Z,40.10
2017-12-20T05:30:03.605Z,35.20
2017-12-20T05:31:03.597Z,31.80
2017-12-20T05:32:03.592Z,29.20
2017-12-20T05:33:03.589Z,32.30
2017-12-20T05:34:03.590Z,29.30
2017-12-20T05:35:03.576Z,25.70
2017-12-20T05:36:03.572Z,27.50
2017-12-20T05:37:03.565Z,33.50
2017-12-20T05:38:03.560Z,31.40
2017-12-20T05:39:03.554Z,36.30
2017-12-20T05:40:03.551Z,28.60
2017-12-20T05:41:03.546Z,30.50
2017-12-20T05:42:03.540Z,39.20
2017-12-20T05:43:03.535Z,27.40
2017-12-20T05:44:03.530Z,35.20
2017-12-20T05:45:03.526Z,35.70
2017-12-20T05:46:03.521Z,33.30
2017-12-20T05:47:03.514Z,35.30
2017-12-20T05:48:03.509Z,32.90
2017-12-20T05:49:03.507Z,29.30
2017-12-20T05:50:03.498Z,28.60
2017-12-20T05:51:03.493Z,36.00
2017-12-20T05:52:03.488Z,32.40
2017-12-20T05:53:03.483Z,32.30
2017-12-20T05:54:03.479Z,30.40
2017-12-20T05:55:03.472Z,35.80
2017-12-20T05:56:03.469Z,36.80
2017-12-20T05:57:03.462Z,27.70
2017-12-20T05:58:03.456Z,34.60
2017-12-20T05:59:03.451Z,34.10
2017-12-20T06:00:03.446Z,27.40
2017-12-20T06:01:03.441Z,30.40
2017-12-20T06:02:03.435Z,29.90
2017-12-20T06:03:03.430Z,34.10
2017-12-20T06:04:03.426Z,36.70
2017-12-20T06:05:03.420Z,29.50
2017-12-20T06:06:03.415Z,25.80
2017-12-20T06:07:03.410Z,21.80
2017-12-20T06:08:03.406Z,30.90
2017-12-20T06:09:03.399Z,23.30
2017-12-20T06:10:03.394Z,21.50
2017-12-20T06:11:03.389Z,29.10
2017-12-20T06:12:03.383Z,30.00
2017-12-20T06:13:03.379Z,29.90
2017-12-20T06:14:03.373Z,25.10
2017-12-20T06:15:03.370Z,28.50
2017-12-20T06:16:03.363Z,24.10
2017-12-20T06:17:03.358Z,21.00
2017-12-20T06:18:03.375Z,21.50
2017-12-20T06:19:03.347Z,24.90
2017-12-20T06:20:03.342Z,24.10
2017-12-20T06:21:03.341Z,27.50
2017-12-20T06:22:03.331Z,27.40
2017-12-20T06:23:03.326Z,22.30
2017-12-20T06:24:03.324Z,26.70
2017-12-20T06:25:03.316Z,30.90
2017-12-20T06:26:03.311Z,24.90
2017-12-20T06:27:03.305Z,19.30
2017-12-20T06:28:03.301Z,25.00
2017-12-20T06:29:03.295Z,24.50
2017-12-20T06:30:03.338Z,26.80
2017-12-20T06:31:03.284Z,31.30
2017-12-20T06:32:03.279Z,29.30
2017-12-20T06:33:03.274Z,23.60
2017-12-20T06:34:03.268Z,25.00
2017-12-20T06:35:03.262Z,25.90
2017-12-20T06:36:03.257Z,30.70
2017-12-20T06:37:03.252Z,24.70
2017-12-20T06:38:03.247Z,23.70
2017-12-20T06:39:03.241Z,29.40
2017-12-20T06:40:03.236Z,24.30
2017-12-20T06:41:03.231Z,26.80
2017-12-20T06:42:03.225Z,28.40
2017-12-20T06:43:03.219Z,27.00
2017-12-20T06:44:03.215Z,23.90
2017-12-20T06:45:03.210Z,25.00
2017-12-20T06:46:03.203Z,27.20
2017-12-20T06:47:03.199Z,29.90
2017-12-20T06:48:03.192Z,29.10
2017-12-20T06:49:03.188Z,23.60
2017-12-20T06:50:03.181Z,28.20
2017-12-20T06:51:03.176Z,28.60
2017-12-20T06:52:03.171Z,24.20
2017-12-20T06:53:03.166Z,33.50
2017-12-20T06:54:03.161Z,19.10
2017-12-20T06:55:03.157Z,29.60
2017-12-20T06:56:03.149Z,33.40
2017-12-20T06:57:03.144Z,25.30
2017-12-20T06:58:03.137Z,45.90
2017-12-20T06:59:03.133Z,33.60
2017-12-20T07:00:03.131Z,32.60
2017-12-20T07:01:03.122Z,37.40
2017-12-20T07:02:03.118Z,37.70
2017-12-20T07:03:03.112Z,36.60
2017-12-20T07:04:03.109Z,33.40
2017-12-20T07:05:03.104Z,34.70
2017-12-20T07:06:03.095Z,32.80
2017-12-20T07:07:03.091Z,34.60
2017-12-20T07:08:03.086Z,35.20
2017-12-20T07:09:03.081Z,38.00
2017-12-20T07:10:03.075Z,43.20
2017-12-20T07:11:03.069Z,27.80
2017-12-20T07:12:03.064Z,38.10
2017-12-20T07:13:03.060Z,38.20
2017-12-20T07:14:03.053Z,31.30
2017-12-20T07:15:03.052Z,34.30
2017-12-20T07:16:03.043Z,45.20
2017-12-20T07:17:03.038Z,45.20
2017-12-20T07:18:03.033Z,43.90
2017-12-20T07:19:03.027Z,43.40
2017-12-20T07:20:03.021Z,38.90
2017-12-20T07:21:03.016Z,44.80
2017-12-20T07:22:03.010Z,42.90
2017-12-20T07:23:03.008Z,43.20
2017-12-20T07:24:02.999Z,44.00
2017-12-20T07:25:02.994Z,50.20
2017-12-20T07:26:02.988Z,58.80
2017-12-20T07:27:02.981Z,50.70
2017-12-20T07:28:02.978Z,49.80
2017-12-20T07:29:02.972Z,41.30
2017-12-20T07:30:02.967Z,56.60
2017-12-20T07:31:02.962Z,42.60
2017-12-20T07:32:02.956Z,61.20
2017-12-20T07:33:02.951Z,60.60
2017-12-20T07:34:02.944Z,55.20
2017-12-20T07:35:02.939Z,50.50
2017-12-20T07:36:02.934Z,72.80
2017-12-20T07:37:02.928Z,69.80
2017-12-20T07:38:02.921Z,65.90
2017-12-20T07:39:02.920Z,60.00
2017-12-20T07:40:02.912Z,69.30
2017-12-20T07:41:02.906Z,67.50
2017-12-20T07:42:02.900Z,58.50
2017-12-20T07:43:02.895Z,59.60
2017-12-20T07:44:02.890Z,67.90
2017-12-20T07:45:02.884Z,75.50
2017-12-20T07:46:02.879Z,62.40
2017-12-20T07:47:02.874Z,83.40
2017-12-20T07:48:02.868Z,71.60
2017-12-20T07:49:02.864Z,58.40
2017-12-20T07:50:02.857Z,114.60
2017-12-20T07:51:02.850Z,71.10
2017-12-20T07:52:02.846Z,112.10
2017-12-20T07:53:02.848Z,95.10
2017-12-20T07:54:02.835Z,109.20
2017-12-20T07:55:02.829Z,70.00
2017-12-20T07:56:02.824Z,77.00
2017-12-20T07:57:02.820Z,96.70
2017-12-20T07:58:02.815Z,67.10
2017-12-20T07:59:02.809Z,66.90
2017-12-20T08:00:02.804Z,76.60
2017-12-20T08:01:02.799Z,65.70
2017-12-20T08:02:02.793Z,59.10
2017-12-20T08:03:02.788Z,67.60
2017-12-20T08:04:02.782Z,59.60
2017-12-20T08:05:02.782Z,93.90
2017-12-20T08:06:02.773Z,77.60
2017-12-20T08:07:02.767Z,84.70
2017-12-20T08:08:02.763Z,80.40
2017-12-20T08:09:02.757Z,91.70
2017-12-20T08:10:02.754Z,64.20
2017-12-20T08:11:02.747Z,88.40
2017-12-20T08:12:02.743Z,81.50
2017-12-20T08:13:02.736Z,76.30
2017-12-20T08:14:02.730Z,77.70
2017-12-20T08:15:02.729Z,63.80
2017-12-20T08:16:02.721Z,76.60
2017-12-20T08:17:02.717Z,78.60
2017-12-20T08:18:02.709Z,79.40
2017-12-20T08:19:02.705Z,59.30
2017-12-20T08:20:02.700Z,74.10
2017-12-20T08:21:02.695Z,69.90
2017-12-20T08:22:02.689Z,61.40
2017-12-20T08:23:02.684Z,77.10
2017-12-20T08:24:02.679Z,70.90
2017-12-20T08:25:02.675Z,123.40
2017-12-20T08:26:02.668Z,79.20
2017-12-20T08:27:02.663Z,71.30
2017-12-20T08:28:02.660Z,70.20
2017-12-20T08:29:02.654Z,47.00
2017-12-20T08:30:02.649Z,80.40
2017-12-20T08:31:02.644Z,66.60
2017-12-20T08:32:02.640Z,61.30
2017-12-20T08:33:02.634Z,66.90
2017-12-20T08:34:02.628Z,92.60
2017-12-20T08:35:02.622Z,71.10
2017-12-20T08:36:02.618Z,68.00
2017-12-20T08:37:02.614Z,58.10
2017-12-20T08:38:02.607Z,57.80
2017-12-20T08:39:02.602Z,80.80
2017-12-20T08:40:02.597Z,72.20
2017-12-20T08:41:02.592Z,54.10
2017-12-20T08:42:02.587Z,64.70
2017-12-20T08:43:02.584Z,55.10
2017-12-20T08:44:02.577Z,68.20
2017-12-20T08:45:02.572Z,71.80
2017-12-20T08:46:02.566Z,99.20
2017-12-20T08:47:02.561Z,84.10
2017-12-20T08:48:02.557Z,102.70
2017-12-20T08:49:02.552Z,80.80
2017-12-20T08:50:02.545Z,87.10
2017-12-20T08:51:02.541Z,84.30
2017-12-20T08:52:02.536Z,89.30
2017-12-20T08:53:02.531Z,78.10
2017-12-20T08:54:02.527Z,68.90
2017-12-20T08:55:02.521Z,48.90
2017-12-20T08:56:02.529Z,55.90
2017-12-20T08:57:02.511Z,58.20
2017-12-20T08:58:02.506Z,71.90
2017-12-20T08:59:02.501Z,45.30
2017-12-20T09:00:02.496Z,70.10
2017-12-20T09:01:02.492Z,69.20
2017-12-20T09:02:02.487Z,62.40
2017-12-20T09:03:02.482Z,78.40
2017-12-20T09:04:02.477Z,72.70
2017-12-20T09:05:02.472Z,52.50
2017-12-20T09:06:02.466Z,69.00
2017-12-20T09:07:02.462Z,74.40
2017-12-20T09:08:02.459Z,85.70
2017-12-20T09:09:02.452Z,58.70
2017-12-20T09:10:02.447Z,77.30
2017-12-20T09:11:02.447Z,64.60
2017-12-20T09:12:02.445Z,61.00
2017-12-20T09:13:02.434Z,78.10
2017-12-20T09:14:02.426Z,71.60
2017-12-20T09:15:02.422Z,40.30
2017-12-20T09:16:02.418Z,59.20
2017-12-20T09:17:02.413Z,61.20
2017-12-20T09:18:02.407Z,85.40
2017-12-20T09:19:02.411Z,62.40
2017-12-20T09:20:02.399Z,85.10
2017-12-20T09:21:02.394Z,84.30
2017-12-20T09:22:02.389Z,51.50
2017-12-20T09:23:02.383Z,59.70
2017-12-20T09:24:02.379Z,70.50
2017-12-20T09:25:02.374Z,43.10
2017-12-20T09:26:02.369Z,67.20
2017-12-20T09:27:02.365Z,59.80
2017-12-20T09:28:02.360Z,53.20
2017-12-20T09:29:02.357Z,53.70
2017-12-20T09:30:02.350Z,54.90
2017-12-20T09:31:02.346Z,65.40
2017-12-20T09:32:02.341Z,66.10
2017-12-20T09:33:02.337Z,68.70
2017-12-20T09:34:02.331Z,83.60
2017-12-20T09:35:02.326Z,80.20
2017-12-20T09:36:02.321Z,58.20
2017-12-20T09:37:02.318Z,65.50
2017-12-20T09:38:02.312Z,72.70
2017-12-20T09:39:02.308Z,76.90
2017-12-20T09:40:02.303Z,73.00
2017-12-20T09:41:02.298Z,84.20
2017-12-20T09:42:02.293Z,78.10
2017-12-20T09:43:02.288Z,94.80
2017-12-20T09:44:02.285Z,107.50
2017-12-20T09:45:02.280Z,77.40
2017-12-20T09:46:02.274Z,73.50
2017-12-20T09:47:02.270Z,58.00
2017-12-20T09:48:02.264Z,95.60
2017-12-20T09:49:02.260Z,80.50
2017-12-20T09:50:02.254Z,70.00
2017-12-20T09:51:02.249Z,51.90
2017-12-20T09:52:02.246Z,93.80
2017-12-20T09:53:02.241Z,86.40
2017-12-20T09:54:02.236Z,149.00
2017-12-20T09:55:02.231Z,87.70
2017-12-20T09:56:02.227Z,103.20
2017-12-20T09:57:02.224Z,85.60
2017-12-20T09:58:02.215Z,68.80
2017-12-20T09:59:02.213Z,120.80
2017-12-20T10:00:02.209Z,99.30
2017-12-20T10:01:02.203Z,111.90
2017-12-20T10:02:02.198Z,81.00
2017-12-20T10:03:02.193Z,80.30
2017-12-20T10:04:02.190Z,87.60
2017-12-20T10:05:02.184Z,98.10
2017-12-20T10:06:02.182Z,63.40
2017-12-20T10:07:02.174Z,79.80
2017-12-20T10:08:02.169Z,89.20
2017-12-20T10:09:02.172Z,81.90
2017-12-20T10:10:02.159Z,96.70
2017-12-20T10:11:02.155Z,67.80
2017-12-20T10:12:02.152Z,67.40
2017-12-20T10:13:02.146Z,75.00
2017-12-20T10:14:02.141Z,61.60
2017-12-20T10:15:02.136Z,79.50
2017-12-20T10:16:02.138Z,69.90
2017-12-20T10:17:02.127Z,79.10
2017-12-20T10:18:02.121Z,140.00
2017-12-20T10:19:02.117Z,61.30
2017-12-20T10:20:02.113Z,77.70
2017-12-20T10:21:02.108Z,93.00
2017-12-20T10:22:02.102Z,67.60
2017-12-20T10:23:02.098Z,69.00
2017-12-20T10:24:02.093Z,55.20
2017-12-20T10:25:02.090Z,78.70
2017-12-20T10:26:02.083Z,77.60
2017-12-20T10:27:02.079Z,85.30
2017-12-20T10:28:02.074Z,53.20
2017-12-20T10:29:02.071Z,59.70
2017-12-20T10:30:02.064Z,64.20
2017-12-20T10:31:02.059Z,48.90
2017-12-20T10:33:02.049Z,43.70
2017-12-20T10:34:02.044Z,52.00
2017-12-20T10:35:02.042Z,47.20
2017-12-20T10:36:02.036Z,65.70
2017-12-20T10:37:02.036Z,56.50
2017-12-20T10:38:02.025Z,54.50
2017-12-20T10:39:02.021Z,56.80
2017-12-20T10:40:02.016Z,40.00
2017-12-20T10:41:02.011Z,52.00
2017-12-20T10:42:02.005Z,50.90
2017-12-20T10:43:01.999Z,51.40
2017-12-20T10:44:01.996Z,41.20
2017-12-20T10:45:01.991Z,58.50
2017-12-20T10:46:01.987Z,42.10
2017-12-20T10:47:01.983Z,55.20
2017-12-20T10:48:01.978Z,55.60
2017-12-20T10:49:01.989Z,59.00
2017-12-20T10:50:01.972Z,41.30
2017-12-20T10:51:01.963Z,51.00
2017-12-20T10:52:01.958Z,37.00
2017-12-20T10:53:01.954Z,44.80
2017-12-20T10:54:01.946Z,37.40
2017-12-20T10:55:01.943Z,38.10
2017-12-20T10:56:01.939Z,42.10
2017-12-20T10:57:01.934Z,36.50
2017-12-20T10:58:01.929Z,47.60
2017-12-20T10:59:01.925Z,39.60
2017-12-20T11:00:01.920Z,34.60
2017-12-20T11:01:01.915Z,39.20
2017-12-20T11:02:01.910Z,25.30
2017-12-20T11:03:01.905Z,35.50
2017-12-20T11:04:01.905Z,27.90
2017-12-20T11:05:01.897Z,27.40
2017-12-20T11:06:01.891Z,30.60
2017-12-20T11:07:01.887Z,34.80
2017-12-20T11:08:01.882Z,23.90
2017-12-20T11:09:01.878Z,24.10
2017-12-20T11:10:01.872Z,34.20
2017-12-20T11:11:01.870Z,32.40
2017-12-20T11:12:01.864Z,31.80
2017-12-20T11:13:01.859Z,27.80
2017-12-20T11:14:01.854Z,27.10
2017-12-20T11:15:01.851Z,23.10
2017-12-20T11:16:01.846Z,24.00
2017-12-20T11:17:01.844Z,30.10
2017-12-20T11:18:01.835Z,28.10
2017-12-20T11:19:01.832Z,27.40
2017-12-20T11:20:01.827Z,23.20
2017-12-20T11:21:01.823Z,35.50
2017-12-20T11:22:01.817Z,25.60
2017-12-20T11:23:01.814Z,27.80
2017-12-20T11:24:01.808Z,28.20
2017-12-20T11:25:01.803Z,28.60
2017-12-20T11:26:01.800Z,22.20
2017-12-20T11:27:01.796Z,27.60
2017-12-20T11:28:01.792Z,28.00
2017-12-20T11:29:01.786Z,21.70
2017-12-20T11:30:01.781Z,25.10
2017-12-20T11:31:01.775Z,33.80
2017-12-20T11:32:01.771Z,18.60
2017-12-20T11:33:01.769Z,26.20
2017-12-20T11:34:01.765Z,24.70
2017-12-20T11:35:01.759Z,22.40
2017-12-20T11:36:01.754Z,22.40
2017-12-20T11:37:01.750Z,23.20
2017-12-20T11:38:01.744Z,21.10
2017-12-20T11:39:01.741Z,19.20
2017-12-20T11:40:01.735Z,18.90
2017-12-20T11:41:01.732Z,24.90
2017-12-20T11:42:01.727Z,21.10
2017-12-20T11:43:01.724Z,19.20
2017-12-20T11:44:01.720Z,21.90
2017-12-20T11:45:01.714Z,22.70
2017-12-20T11:46:01.710Z,20.10
2017-12-20T11:47:01.706Z,19.40
2017-12-20T11:48:01.702Z,21.30
2017-12-20T11:49:01.697Z,23.90
2017-12-20T11:50:01.694Z,17.70
2017-12-20T11:51:01.688Z,17.10
2017-12-20T11:52:01.686Z,16.50
2017-12-20T11:53:01.680Z,23.30
2017-12-20T11:54:01.675Z,21.30
2017-12-20T11:55:01.671Z,20.10
2017-12-20T11:56:01.668Z,25.60
2017-12-20T11:57:01.664Z,32.30
2017-12-20T11:58:01.659Z,26.20
2017-12-20T11:59:01.655Z,23.80
2017-12-20T12:00:01.651Z,22.70
2017-12-20T12:01:01.646Z,20.00
2017-12-20T12:02:01.640Z,20.50
2017-12-20T12:03:01.637Z,16.50
2017-12-20T12:04:01.633Z,27.00
2017-12-20T12:05:01.630Z,22.40
2017-12-20T12:06:01.624Z,24.80
2017-12-20T12:07:01.620Z,23.20
2017-12-20T12:08:01.615Z,23.40
2017-12-20T12:09:01.613Z,37.60
2017-12-20T12:10:01.608Z,41.10
2017-12-20T12:11:01.604Z,27.90
2017-12-20T12:12:01.600Z,24.70
2017-12-20T12:13:01.595Z,33.60
2017-12-20T12:14:01.590Z,24.70
2017-12-20T12:15:01.587Z,17.40
2017-12-20T12:16:01.586Z,22.80
2017-12-20T12:17:01.578Z,21.20
2017-12-20T12:18:01.575Z,15.00
2017-12-20T12:19:01.571Z,19.10
2017-12-20T12:20:01.566Z,17.40
2017-12-20T12:21:01.562Z,14.50
2017-12-20T12:22:01.557Z,17.00
2017-12-20T12:23:01.552Z,19.90
2017-12-20T12:24:01.550Z,24.30
2017-12-20T12:25:01.547Z,23.00
2017-12-20T12:26:01.540Z,22.10
2017-12-20T12:27:01.536Z,20.90
2017-12-20T12:28:01.531Z,20.50
2017-12-20T12:29:01.527Z,25.10
2017-12-20T12:30:01.522Z,24.50
2017-12-20T12:31:01.518Z,27.20
2017-12-20T12:32:01.514Z,29.30
2017-12-20T12:33:01.511Z,33.00
2017-12-20T12:34:01.505Z,25.60
2017-12-20T12:35:01.501Z,24.30
2017-12-20T12:36:01.495Z,25.20
2017-12-20T12:37:01.492Z,22.60
2017-12-20T12:38:01.487Z,23.40
2017-12-20T12:39:01.484Z,32.90
2017-12-20T12:40:01.478Z,29.40
2017-12-20T12:41:01.474Z,31.20
2017-12-20T12:42:01.469Z,29.30
2017-12-20T12:43:01.463Z,25.30
2017-12-20T12:44:01.460Z,24.10
2017-12-20T12:45:01.456Z,27.70
2017-12-20T12:46:01.451Z,31.90
2017-12-20T12:47:01.446Z,34.40
2017-12-20T12:48:01.442Z,36.00
2017-12-20T12:49:01.438Z,33.20
2017-12-20T12:50:01.432Z,31.30
2017-12-20T12:51:01.427Z,28.50
2017-12-20T12:52:01.423Z,26.40
2017-12-20T12:53:01.419Z,35.60